Station info - map view · info · telemetry · weather · raw · status · beacons · messages · bulletins · browse · moving · my account
Callsign, ship name or locator: Clear       
It is possible to search using wildcards (*?) after a prefix. Example: OH*
APRS station OE3JAL-7 - show graphs
Map loading...
Comment: PicoAPRS by DB1NTO
Mic-E message: En route
Last status: PicoAPRS - World's smallest APRS Transceiver by DB1NTO!
Location: 47°50.37' N 16°05.22' E - locator JN87BU01KL - show map - static map
3.7 miles North bearing 22° from Willendorf am Steinfelde, Politischer Bezirk Neunkirchen, Lower Austria, Austria [?]
4.8 miles East bearing 91° from Miesenbach, Politischer Bezirk Wiener Neustadt, Lower Austria, Austria
28.7 miles Southwest bearing 207° from Vienna, Politischer Bezirk Wien (Stadt), Vienna, Austria
51.7 miles Southwest bearing 246° from Bratislava, Bratislavský, Slovakia
Last position: 2020-11-13 15:29:19 EST (11d 14h42m ago)
2020-11-13 21:29:19 CET local time at Willendorf am Steinfelde, Austria [?]
Altitude: 1490 ft
Course: 306°
Speed: 16 MPH
Last path: OE3JAL-7>TW5P37-2 via WIDE1-1,WIDE2-2,qAR,OE3XTR-2 (good)
Positions stored: 6060
Other SSIDs: OE3JAL-5
Stations near current position of OE3JAL-7 - show more
callsign distance last heard - EST      callsign distance last heard - EST
OE3XNK B0.8 miles 331°2020-11-25 06:08:49 OE3XNK-B0.8 miles 331°2020-11-25 06:08:59
OE3XNK-DP0.8 miles 331°2020-11-25 06:06:24 OE3XNK-R0.8 miles 331°2020-11-25 06:07:59
OE3XTR-122.7 miles 245°2020-11-25 05:58:47 OE3XTR-22.7 miles 244°2020-11-25 06:09:08
OE3XTR-72.7 miles 244°2020-11-25 06:10:15 OE3XTR-DP2.8 miles 244°2020-11-25 06:06:24
OE/NO-1482.8 miles 209°2020-11-07 12:15:48 OE/NO-1043.7 miles 330°2020-11-19 09:53:40
DW31636.3 miles 242°2020-11-25 06:08:29 OE3PMS-DP6.4 miles 104°2020-11-25 05:55:08
OE3TRB-157.0 miles 9°2020-11-25 06:07:36 OE1TRB-87.0 miles 6°2020-11-25 03:42:24
OE3LCR-77.2 miles 105°2020-11-23 07:57:11 NAVY10-157.2 miles 69°2020-11-25 00:34:22
OE3BHW-97.3 miles 63°2020-11-24 05:06:24 OE3SAD7.3 miles 102°2020-11-16 12:28:26
OE3WGB-97.6 miles 7°2020-11-14 06:13:31 FW19577.6 miles 72°2020-11-25 06:11:56
Stations which heard OE3JAL-7 directly on radio –
callsign pkts first heard - EST last heard longest (tx => rx) longest at - EST
OE1XQR 20 2020-11-13 06:57:38 2020-11-13 15:01:20 JN88DA > JN88EE 10.5 miles 14° 2020-11-13 15:01:20
OE6XTR 29 2020-11-13 06:58:37 2020-11-13 15:29:19 JN78JC > JN77VN 61.1 miles 128° 2020-11-13 13:32:44
S59DXX-2 7 2020-11-13 07:58:35 2020-11-13 15:02:45 JN78JC > JN76TM 116.8 miles 161° 2020-11-13 13:34:27
S55YBO-2 15 2020-11-13 07:20:26 2020-11-13 15:07:44 JN78PE > JN76TG 132.9 miles 173° 2020-11-13 07:51:45
OE3XXR 22 2020-11-13 08:23:57 2020-11-13 13:30:45 JN78CE > JN78GD 15.8 miles 100° 2020-11-13 13:05:05
OE5XDO-10 6 2020-11-13 09:13:20 2020-11-13 12:37:44 JN68PC > JN68VM 35.6 miles 42° 2020-11-13 12:05:11
OE5XIM-10 36 2020-11-13 08:10:32 2020-11-13 13:37:04 JN68RE > JN78DN 44.1 miles 56° 2020-11-13 12:24:24
OE5XGL-10 26 2020-11-13 08:16:12 2020-11-13 12:53:24 JN78JC > JN67VV 45.6 miles 251° 2020-11-13 08:16:12
OE5REO-10 2 2020-11-13 08:39:12 2020-11-13 08:53:14 JN78DE > JN77BV 21.3 miles 196° 2020-11-13 08:39:12
OE1IWA-10 14 2020-11-13 06:57:37 2020-11-13 14:54:19 JN88CC > JN88ED 5.4 miles 60° 2020-11-13 07:06:21
OE2XZR-10 14 2020-11-13 10:17:04 2020-11-13 11:04:39 JN68NA > JN67NT 16.2 miles 177° 2020-11-13 11:04:39
OE3MZC-2 22 2020-11-13 07:21:01 2020-11-13 14:32:39 JN78TE > JN78XE 15.4 miles 84° 2020-11-13 14:15:59
OE3XDA-10 11 2020-11-13 07:58:32 2020-11-13 14:14:19 JN78SE > JN78LC 27.8 miles 260° 2020-11-13 14:14:19
OE3XTR-2 11 2020-11-13 15:22:39 2020-11-13 15:29:19 JN87BU > JN87AT 4.0 miles 245° 2020-11-13 15:22:39
OE3SZA-10 6 2020-11-13 08:06:12 2020-11-13 13:38:24 JN78HD > JN78KD 12.2 miles 90° 2020-11-13 13:26:44
OE1IWA-11 24 2020-11-13 06:57:57 2020-11-13 15:01:19 JN88DA > JN88DD 8.3 miles 347° 2020-11-13 15:01:19
OE1TRB-15 1 2020-11-13 07:06:01 2020-11-13 07:06:01 JN88CC > JN88EF 11.7 miles 29° 2020-11-13 07:06:01
OE3TRB-15 3 2020-11-13 15:16:19 2020-11-13 15:19:19 JN87BU > JN87BW 5.3 miles 4° 2020-11-13 15:19:19
OE5DRP 4 2020-11-13 08:49:18 2020-11-13 09:13:23 JN68XA > JN68XP 42.1 miles 358° 2020-11-13 09:13:23
OE5EEP-10 11 2020-11-13 09:20:40 2020-11-13 10:04:40 JN67QU > JN67TX 14.1 miles 59° 2020-11-13 10:04:40
OE3BUB-10 3 2020-11-13 14:50:19 2020-11-13 14:51:39 JN88CC > JN88FG 16.2 miles 36° 2020-11-13 14:50:19
OE3PDB-3 4 2020-11-13 07:33:41 2020-11-13 14:21:38 JN78SE > JN88BG 24.7 miles 78° 2020-11-13 14:14:59
OE3XFW-10 5 2020-11-13 07:22:41 2020-11-13 14:30:39 JN78WD > JN78XD 5.1 miles 109° 2020-11-13 07:27:01
OE5XUL-10 25 2020-11-13 12:06:11 2020-11-13 12:43:04 JN68PC > JN68SE 13.2 miles 67° 2020-11-13 12:06:11
OE3JJS-10 3 2020-11-13 07:31:41 2020-11-13 14:32:19 JN78XD > JN78VE 10.6 miles 291° 2020-11-13 14:32:19
OE3XLR 18 2020-11-13 07:23:21 2020-11-13 14:19:19 JN78EF > JN77TX 60.2 miles 107° 2020-11-13 13:13:44
OE3MUC-15 5 2020-11-13 08:10:12 2020-11-13 13:41:24 JN78FE > JN78SK 52.6 miles 73° 2020-11-13 13:19:04
OE5XHR-10 5 2020-11-13 08:42:12 2020-11-13 12:41:24 JN68MB > JN68XR 61.5 miles 40° 2020-11-13 11:13:08
OE5XSO-10 1 2020-11-13 09:35:40 2020-11-13 09:35:40 JN67RW > JN68SB 11.9 miles 22° 2020-11-13 09:35:40
OE7XFJ-10 1 2020-11-13 11:01:25 2020-11-13 11:01:25 JN68NA > JN67FL 48.5 miles 220° 2020-11-13 11:01:25
OE3PDB-10 1 2020-11-13 14:20:19 2020-11-13 14:20:19 JN78UE > JN88BG 18.2 miles 75° 2020-11-13 14:20:19
OE5WWO 1 2020-11-13 08:33:52 2020-11-13 08:33:52 JN78EF > JN78DH 5.0 miles 331° 2020-11-13 08:33:52
OE5XLM-10 17 2020-11-13 08:12:12 2020-11-13 13:18:44 JN78KD > JN78CH 29.7 miles 292° 2020-11-13 08:12:12
DJ6CX 1 2020-11-13 10:35:38 2020-11-13 10:35:38 JN67NW > JN67MP 20.9 miles 187° 2020-11-13 10:35:38
OE3XWJ-10 76 2020-11-13 07:29:21 2020-11-13 14:26:19 JN78HD > JN78QI 37.2 miles 68° 2020-11-13 13:25:44
OE5XOL-10 7 2020-11-13 08:32:32 2020-11-13 13:28:24 JN68TE > JN78DJ 32.8 miles 62° 2020-11-13 12:38:25
DO1GER-10 1 2020-11-13 11:23:47 2020-11-13 11:23:47 JN68MB > JN68MG 13.0 miles 354° 2020-11-13 11:23:47
OE3ELJ-15 7 2020-11-13 15:05:39 2020-11-13 15:21:39 JN87BU > JN87CW 8.4 miles 50° 2020-11-13 15:21:39
OE3XXI 1 2020-11-13 14:51:59 2020-11-13 14:51:59 JN88DC > JN88HE 16.8 miles 76° 2020-11-13 14:51:59
OE5XGR-10 9 2020-11-13 11:12:48 2020-11-13 12:04:51 JN68PC > JN68LD 16.7 miles 272° 2020-11-13 12:04:51
S5YKO-2 26 2020-11-13 07:20:25 2020-11-13 14:56:47 JN88DC > JN76LL 129.5 miles 210° 2020-11-13 14:55:04
DB0WGS-10 4 2020-11-13 09:24:40 2020-11-13 12:38:24 JN67UW > JN68VO 44.9 miles 3° 2020-11-13 09:24:40
OE1IWA-12 16 2020-11-13 06:57:37 2020-11-13 14:56:58 JN88DC > JN88ED 5.1 miles 60° 2020-11-13 14:50:38
DB0RDH 11 2020-11-13 09:39:40 2020-11-13 12:15:16 JN67RU > JN68KW 79.8 miles 341° 2020-11-13 09:39:40
OE3XMB-10 1 2020-11-13 07:20:21 2020-11-13 07:20:21 JN78XD > JN88CJ 20.8 miles 33° 2020-11-13 07:20:21
OE3PDB-1 1 2020-11-13 14:26:20 2020-11-13 14:26:20 JN78WE > JN88BF 11.9 miles 65° 2020-11-13 14:26:20

Only position packets which were originated by the station are shown here. The range statistics show some extra long hops, because some digipeaters do not correctly add themselves to the digipeater path. Please check the raw packets.
About this site
This page shows real-time information collected from the Automatic Position Reporting System Internet network (APRS-IS). APRS is used by amateur (ham) radio operators to transmit real-time position information, weather data, telemetry and messages over the radio. A vehicle equipped with a GPS receiver, a VHF transmitter or HF transceiver and a small computer device called a tracker transmits it's location, speed and course in a small data packet, which is then received by a nearby iGate receiving site which forwards the packet on the Internet. Systems connected to the Internet can send information on the APRS-IS without a radio transmitter, or collect and display information transmitted anywhere in the world.
User guide · FAQ · Blog · Discussion group · Linking to aprs.fi · AIS sites · Service status · Database statistics · Advertising on aprs.fi · Technical details · API · Change log · Planned changes · Credits and thanks · Terms Of Service · iPhone/iPad APRS